Fords Creek, Mississippi
Current Conditions -  °F | °C
As of 11:55 PM on Sunday 19 Oct 2014 (Local Time) from KBXA Reporting Station
NA  
Wind Chill: 51°   Ceiling: NA
Heat Index: 51°   Visibility: 10mi
Dew Point: 48°   Wind: 0mph
Humidity: 88%   Direction: NA
Pressure: 30.08"   Gusts: NA
Location:  30.8781°N, 89.5858°W
Report Text: KBXA 200455Z AUTO 00000KT 10SM 11/09 A3008 RMK AO2 T01060087
Loading
Personal Weather Stations






























Interactive Weather Map
Tropical Storm Tracking
New forecast layout! Learn more

10-Day Weather Forecast

Advertisements
Track Severe Weather on mobile